sensor_id;sensor_type;location;lat;lon;timestamp;temperature;humidity
292;DHT22;23311;48.776;9.162;2023-02-01T00:00:53;4.20;95.50
292;DHT22;23311;48.776;9.162;2023-02-01T00:03:21;4.20;95.50
292;DHT22;23311;48.776;9.162;2023-02-01T00:05:56;4.30;95.50
292;DHT22;23311;48.776;9.162;2023-02-01T00:08:24;4.30;95.50
292;DHT22;23311;48.776;9.162;2023-02-01T00:10:58;4.30;95.50
292;DHT22;23311;48.776;9.162;2023-02-01T00:13:28;4.30;95.50
292;DHT22;23311;48.776;9.162;2023-02-01T00:16:03;4.30;95.50
292;DHT22;23311;48.776;9.162;2023-02-01T00:18:31;4.30;95.50
292;DHT22;23311;48.776;9.162;2023-02-01T00:21:01;4.30;95.50
292;DHT22;23311;48.776;9.162;2023-02-01T00:23:32;4.30;95.50
292;DHT22;23311;48.776;9.162;2023-02-01T00:26:00;4.30;95.50
292;DHT22;23311;48.776;9.162;2023-02-01T00:28:29;4.30;95.50
292;DHT22;23311;48.776;9.162;2023-02-01T00:30:58;4.30;95.50
292;DHT22;23311;48.776;9.162;2023-02-01T00:33:27;4.30;95.50
292;DHT22;23311;48.776;9.162;2023-02-01T00:35:56;4.30;95.50
292;DHT22;23311;48.776;9.162;2023-02-01T00:38:27;4.30;95.50
292;DHT22;23311;48.776;9.162;2023-02-01T00:41:01;4.30;95.50
292;DHT22;23311;48.776;9.162;2023-02-01T00:43:30;4.30;95.50
292;DHT22;23311;48.776;9.162;2023-02-01T00:45:58;4.30;95.50
292;DHT22;23311;48.776;9.162;2023-02-01T00:48:27;4.30;95.50
292;DHT22;23311;48.776;9.162;2023-02-01T00:50:59;4.30;95.50
292;DHT22;23311;48.776;9.162;2023-02-01T00:53:29;4.30;95.50
292;DHT22;23311;48.776;9.162;2023-02-01T00:55:57;4.30;95.50
292;DHT22;23311;48.776;9.162;2023-02-01T00:58:26;4.30;95.50
292;DHT22;23311;48.776;9.162;2023-02-01T01:01:02;4.40;95.50
292;DHT22;23311;48.776;9.162;2023-02-01T01:03:31;4.40;95.50
292;DHT22;23311;48.776;9.162;2023-02-01T01:06:02;4.40;95.50
292;DHT22;23311;48.776;9.162;2023-02-01T01:08:32;4.40;95.50
292;DHT22;23311;48.776;9.162;2023-02-01T01:11:04;4.40;95.50
292;DHT22;23311;48.776;9.162;2023-02-01T01:13:32;4.40;95.50
292;DHT22;23311;48.776;9.162;2023-02-01T01:16:00;4.40;95.50
292;DHT22;23311;48.776;9.162;2023-02-01T01:18:30;4.40;95.50
292;DHT22;23311;48.776;9.162;2023-02-01T01:20:59;4.40;95.50
292;DHT22;23311;48.776;9.162;2023-02-01T01:23:27;4.40;95.50
292;DHT22;23311;48.776;9.162;2023-02-01T01:25:57;4.40;95.50
292;DHT22;23311;48.776;9.162;2023-02-01T01:28:25;4.40;95.50
292;DHT22;23311;48.776;9.162;2023-02-01T01:30:53;4.40;95.50
292;DHT22;23311;48.776;9.162;2023-02-01T01:33:21;4.40;95.50
292;DHT22;23311;48.776;9.162;2023-02-01T01:35:49;4.40;95.50
292;DHT22;23311;48.776;9.162;2023-02-01T01:38:17;4.50;95.50
292;DHT22;23311;48.776;9.162;2023-02-01T01:40:46;4.50;95.50
292;DHT22;23311;48.776;9.162;2023-02-01T01:43:17;4.50;95.50
292;DHT22;23311;48.776;9.162;2023-02-01T01:45:46;4.50;95.50
292;DHT22;23311;48.776;9.162;2023-02-01T01:48:17;4.50;95.50
292;DHT22;23311;48.776;9.162;2023-02-01T01:50:50;4.50;95.50
292;DHT22;23311;48.776;9.162;2023-02-01T01:53:23;4.50;95.50
292;DHT22;23311;48.776;9.162;2023-02-01T01:55:53;4.50;95.50
292;DHT22;23311;48.776;9.162;2023-02-01T01:58:25;4.50;95.50
292;DHT22;23311;48.776;9.162;2023-02-01T02:00:54;4.50;95.50
292;DHT22;23311;48.776;9.162;2023-02-01T02:03:25;4.50;95.50
292;DHT22;23311;48.776;9.162;2023-02-01T02:05:57;4.50;95.50
292;DHT22;23311;48.776;9.162;2023-02-01T02:08:27;4.50;95.50
292;DHT22;23311;48.776;9.162;2023-02-01T02:10:55;4.50;95.50
292;DHT22;23311;48.776;9.162;2023-02-01T02:13:33;4.50;95.50
292;DHT22;23311;48.776;9.162;2023-02-01T02:16:18;4.50;95.50
292;DHT22;23311;48.776;9.162;2023-02-01T02:18:57;4.50;95.50
292;DHT22;23311;48.776;9.162;2023-02-01T02:21:48;4.50;95.50
292;DHT22;23311;48.776;9.162;2023-02-01T02:24:34;4.50;95.50
292;DHT22;23311;48.776;9.162;2023-02-01T02:27:29;4.60;95.50
292;DHT22;23311;48.776;9.162;2023-02-01T02:33:39;4.60;95.50
292;DHT22;23311;48.776;9.162;2023-02-01T02:36:16;4.60;95.50
292;DHT22;23311;48.776;9.162;2023-02-01T02:38:51;4.50;95.50
292;DHT22;23311;48.776;9.162;2023-02-01T02:41:27;4.60;95.50
292;DHT22;23311;48.776;9.162;2023-02-01T02:44:28;4.60;95.50
292;DHT22;23311;48.776;9.162;2023-02-01T02:47:22;4.60;95.50
292;DHT22;23311;48.776;9.162;2023-02-01T02:49:58;4.70;95.50
292;DHT22;23311;48.776;9.162;2023-02-01T02:52:51;4.70;95.50
292;DHT22;23311;48.776;9.162;2023-02-01T02:55:40;4.60;95.50
292;DHT22;23311;48.776;9.162;2023-02-01T02:58:10;4.50;95.50
292;DHT22;23311;48.776;9.162;2023-02-01T03:00:57;4.50;95.50
292;DHT22;23311;48.776;9.162;2023-02-01T03:03:43;4.40;95.50
292;DHT22;23311;48.776;9.162;2023-02-01T03:06:38;4.30;95.50
292;DHT22;23311;48.776;9.162;2023-02-01T03:09:11;4.30;95.50
292;DHT22;23311;48.776;9.162;2023-02-01T03:11:42;4.20;95.50
292;DHT22;23311;48.776;9.162;2023-02-01T03:14:31;4.30;95.50
292;DHT22;23311;48.776;9.162;2023-02-01T03:17:05;4.20;95.50
292;DHT22;23311;48.776;9.162;2023-02-01T03:19:38;4.30;95.50
292;DHT22;23311;48.776;9.162;2023-02-01T03:22:14;4.30;95.50
292;DHT22;23311;48.776;9.162;2023-02-01T03:24:45;4.30;95.50
292;DHT22;23311;48.776;9.162;2023-02-01T03:27:18;4.30;95.50
292;DHT22;23311;48.776;9.162;2023-02-01T03:29:51;4.40;95.50
292;DHT22;23311;48.776;9.162;2023-02-01T03:32:21;4.40;95.50
292;DHT22;23311;48.776;9.162;2023-02-01T03:34:50;4.40;95.50
292;DHT22;23311;48.776;9.162;2023-02-01T03:37:24;4.30;95.50
292;DHT22;23311;48.776;9.162;2023-02-01T03:39:57;4.20;95.50
292;DHT22;23311;48.776;9.162;2023-02-01T03:42:30;4.20;95.50
292;DHT22;23311;48.776;9.162;2023-02-01T03:45:04;4.20;95.50
292;DHT22;23311;48.776;9.162;2023-02-01T03:47:36;4.30;95.50
292;DHT22;23311;48.776;9.162;2023-02-01T03:50:07;4.30;95.50
292;DHT22;23311;48.776;9.162;2023-02-01T03:52:41;4.30;95.50
292;DHT22;23311;48.776;9.162;2023-02-01T03:55:11;4.30;95.50
292;DHT22;23311;48.776;9.162;2023-02-01T03:57:45;4.30;95.50
292;DHT22;23311;48.776;9.162;2023-02-01T04:00:18;4.40;95.50
292;DHT22;23311;48.776;9.162;2023-02-01T04:02:47;4.40;95.50
292;DHT22;23311;48.776;9.162;2023-02-01T04:05:15;4.30;95.50
292;DHT22;23311;48.776;9.162;2023-02-01T04:07:44;4.30;95.50
292;DHT22;23311;48.776;9.162;2023-02-01T04:10:12;4.30;95.50
292;DHT22;23311;48.776;9.162;2023-02-01T04:12:42;4.20;95.50
292;DHT22;23311;48.776;9.162;2023-02-01T04:15:11;4.30;95.50
292;DHT22;23311;48.776;9.162;2023-02-01T04:17:39;4.20;95.50
292;DHT22;23311;48.776;9.162;2023-02-01T04:20:08;4.30;95.50
292;DHT22;23311;48.776;9.162;2023-02-01T04:22:36;4.30;95.50
292;DHT22;23311;48.776;9.162;2023-02-01T04:25:07;4.30;95.50
292;DHT22;23311;48.776;9.162;2023-02-01T04:27:35;4.40;95.50
292;DHT22;23311;48.776;9.162;2023-02-01T04:30:04;4.40;95.50
292;DHT22;23311;48.776;9.162;2023-02-01T04:32:36;4.40;95.50
292;DHT22;23311;48.776;9.162;2023-02-01T04:35:05;4.50;95.50
292;DHT22;23311;48.776;9.162;2023-02-01T04:37:34;4.50;95.50
292;DHT22;23311;48.776;9.162;2023-02-01T04:40:02;4.50;95.50
292;DHT22;23311;48.776;9.162;2023-02-01T04:42:32;4.40;95.50
292;DHT22;23311;48.776;9.162;2023-02-01T04:45:00;4.40;95.50
292;DHT22;23311;48.776;9.162;2023-02-01T04:47:29;4.40;95.50
292;DHT22;23311;48.776;9.162;2023-02-01T04:49:57;4.50;95.50
292;DHT22;23311;48.776;9.162;2023-02-01T04:52:25;4.50;95.50
292;DHT22;23311;48.776;9.162;2023-02-01T04:54:54;4.50;95.50
292;DHT22;23311;48.776;9.162;2023-02-01T04:57:25;4.50;95.50
292;DHT22;23311;48.776;9.162;2023-02-01T04:59:55;4.60;95.50
292;DHT22;23311;48.776;9.162;2023-02-01T05:02:23;4.70;95.50
292;DHT22;23311;48.776;9.162;2023-02-01T05:04:51;4.70;95.50
292;DHT22;23311;48.776;9.162;2023-02-01T05:07:19;4.70;95.50
292;DHT22;23311;48.776;9.162;2023-02-01T05:09:47;4.70;95.50
292;DHT22;23311;48.776;9.162;2023-02-01T05:12:15;4.60;95.50
292;DHT22;23311;48.776;9.162;2023-02-01T05:15:02;4.70;95.50
292;DHT22;23311;48.776;9.162;2023-02-01T05:17:30;4.80;95.50
292;DHT22;23311;48.776;9.162;2023-02-01T05:19:58;4.90;95.50
292;DHT22;23311;48.776;9.162;2023-02-01T05:22:26;4.90;95.50
292;DHT22;23311;48.776;9.162;2023-02-01T05:24:54;4.90;95.50
292;DHT22;23311;48.776;9.162;2023-02-01T05:27:22;4.90;95.50
292;DHT22;23311;48.776;9.162;2023-02-01T05:29:50;4.90;95.50
292;DHT22;23311;48.776;9.162;2023-02-01T05:32:20;4.90;95.50
292;DHT22;23311;48.776;9.162;2023-02-01T05:34:49;5.00;95.50
292;DHT22;23311;48.776;9.162;2023-02-01T05:37:17;5.00;95.50
292;DHT22;23311;48.776;9.162;2023-02-01T05:39:45;5.00;95.50
292;DHT22;23311;48.776;9.162;2023-02-01T05:42:13;4.90;95.50
292;DHT22;23311;48.776;9.162;2023-02-01T05:44:41;4.80;95.50
292;DHT22;23311;48.776;9.162;2023-02-01T05:47:09;4.80;95.50
292;DHT22;23311;48.776;9.162;2023-02-01T05:49:40;4.80;95.50
292;DHT22;23311;48.776;9.162;2023-02-01T05:52:08;4.80;95.50
292;DHT22;23311;48.776;9.162;2023-02-01T05:54:36;4.80;95.50
292;DHT22;23311;48.776;9.162;2023-02-01T05:57:04;4.80;95.50
292;DHT22;23311;48.776;9.162;2023-02-01T05:59:32;4.70;95.50
292;DHT22;23311;48.776;9.162;2023-02-01T06:02:01;4.60;95.50
292;DHT22;23311;48.776;9.162;2023-02-01T06:04:29;4.50;95.50
292;DHT22;23311;48.776;9.162;2023-02-01T06:06:58;4.40;95.50
292;DHT22;23311;48.776;9.162;2023-02-01T06:09:26;4.30;95.50
292;DHT22;23311;48.776;9.162;2023-02-01T06:11:55;4.20;95.50
292;DHT22;23311;48.776;9.162;2023-02-01T06:14:23;4.20;95.50
292;DHT22;23311;48.776;9.162;2023-02-01T06:16:51;4.20;95.50
292;DHT22;23311;48.776;9.162;2023-02-01T06:19:19;4.10;95.50
292;DHT22;23311;48.776;9.162;2023-02-01T06:21:47;4.20;95.50
292;DHT22;23311;48.776;9.162;2023-02-01T06:24:17;4.20;95.50
292;DHT22;23311;48.776;9.162;2023-02-01T06:26:46;4.10;95.50
292;DHT22;23311;48.776;9.162;2023-02-01T06:29:14;4.10;95.50
292;DHT22;23311;48.776;9.162;2023-02-01T06:31:42;4.20;95.50
292;DHT22;23311;48.776;9.162;2023-02-01T06:34:10;4.20;95.50
292;DHT22;23311;48.776;9.162;2023-02-01T06:36:38;4.20;95.50
292;DHT22;23311;48.776;9.162;2023-02-01T06:39:06;4.30;95.50
292;DHT22;23311;48.776;9.162;2023-02-01T06:41:36;4.30;95.50
292;DHT22;23311;48.776;9.162;2023-02-01T06:44:04;4.40;95.50
292;DHT22;23311;48.776;9.162;2023-02-01T06:46:32;4.40;95.50
292;DHT22;23311;48.776;9.162;2023-02-01T06:49:00;4.50;95.50
292;DHT22;23311;48.776;9.162;2023-02-01T06:51:28;4.60;95.50
292;DHT22;23311;48.776;9.162;2023-02-01T06:53:57;4.60;95.50
292;DHT22;23311;48.776;9.162;2023-02-01T06:56:25;4.60;95.50
292;DHT22;23311;48.776;9.162;2023-02-01T06:58:55;4.60;95.50
292;DHT22;23311;48.776;9.162;2023-02-01T07:01:23;4.60;95.50
292;DHT22;23311;48.776;9.162;2023-02-01T07:03:51;4.70;95.50
292;DHT22;23311;48.776;9.162;2023-02-01T07:06:19;4.70;95.50
292;DHT22;23311;48.776;9.162;2023-02-01T07:08:48;4.70;95.50
292;DHT22;23311;48.776;9.162;2023-02-01T07:11:18;4.80;95.50
292;DHT22;23311;48.776;9.162;2023-02-01T07:13:46;4.80;95.50
292;DHT22;23311;48.776;9.162;2023-02-01T07:16:18;4.80;95.50
292;DHT22;23311;48.776;9.162;2023-02-01T07:18:47;4.90;95.50
292;DHT22;23311;48.776;9.162;2023-02-01T07:21:15;4.90;95.50
292;DHT22;23311;48.776;9.162;2023-02-01T07:23:43;4.90;95.50
292;DHT22;23311;48.776;9.162;2023-02-01T07:26:13;4.90;95.50
292;DHT22;23311;48.776;9.162;2023-02-01T07:28:43;4.90;95.50
292;DHT22;23311;48.776;9.162;2023-02-01T07:31:12;5.00;95.50
292;DHT22;23311;48.776;9.162;2023-02-01T07:33:43;5.00;95.50
292;DHT22;23311;48.776;9.162;2023-02-01T07:36:14;5.00;95.50
292;DHT22;23311;48.776;9.162;2023-02-01T07:38:42;5.00;95.50
292;DHT22;23311;48.776;9.162;2023-02-01T07:41:10;5.10;95.50
292;DHT22;23311;48.776;9.162;2023-02-01T07:43:38;5.10;95.50
292;DHT22;23311;48.776;9.162;2023-02-01T07:46:06;5.20;95.50
292;DHT22;23311;48.776;9.162;2023-02-01T07:48:35;5.20;95.50
292;DHT22;23311;48.776;9.162;2023-02-01T07:51:08;5.20;95.50
292;DHT22;23311;48.776;9.162;2023-02-01T07:53:37;5.30;95.50
292;DHT22;23311;48.776;9.162;2023-02-01T07:56:10;5.40;95.50
292;DHT22;23311;48.776;9.162;2023-02-01T07:58:39;5.50;95.50
292;DHT22;23311;48.776;9.162;2023-02-01T08:01:14;5.50;95.50
292;DHT22;23311;48.776;9.162;2023-02-01T08:03:47;5.50;95.50
292;DHT22;23311;48.776;9.162;2023-02-01T08:06:17;5.60;95.50
292;DHT22;23311;48.776;9.162;2023-02-01T08:08:47;5.60;95.50
292;DHT22;23311;48.776;9.162;2023-02-01T08:11:16;5.70;95.50
292;DHT22;23311;48.776;9.162;2023-02-01T08:13:44;5.70;95.50
292;DHT22;23311;48.776;9.162;2023-02-01T08:16:14;5.70;95.50
292;DHT22;23311;48.776;9.162;2023-02-01T08:18:43;5.70;95.50
292;DHT22;23311;48.776;9.162;2023-02-01T08:21:14;5.70;95.50
292;DHT22;23311;48.776;9.162;2023-02-01T08:23:44;5.70;95.50
292;DHT22;23311;48.776;9.162;2023-02-01T08:26:14;5.70;95.50
292;DHT22;23311;48.776;9.162;2023-02-01T08:28:47;5.80;95.50
292;DHT22;23311;48.776;9.162;2023-02-01T08:31:18;5.90;95.50
292;DHT22;23311;48.776;9.162;2023-02-01T08:33:49;6.00;95.50
292;DHT22;23311;48.776;9.162;2023-02-01T08:36:18;6.10;95.50
292;DHT22;23311;48.776;9.162;2023-02-01T08:38:48;6.20;95.50
292;DHT22;23311;48.776;9.162;2023-02-01T08:41:18;6.40;95.50
292;DHT22;23311;48.776;9.162;2023-02-01T08:43:46;6.50;95.50
292;DHT22;23311;48.776;9.162;2023-02-01T08:46:16;6.50;95.50
292;DHT22;23311;48.776;9.162;2023-02-01T08:48:46;6.70;95.50
292;DHT22;23311;48.776;9.162;2023-02-01T08:51:15;6.80;95.50
292;DHT22;23311;48.776;9.162;2023-02-01T08:53:43;6.80;95.50
292;DHT22;23311;48.776;9.162;2023-02-01T08:56:14;6.90;95.50
292;DHT22;23311;48.776;9.162;2023-02-01T08:58:43;6.90;95.50
292;DHT22;23311;48.776;9.162;2023-02-01T09:01:13;6.90;95.50
292;DHT22;23311;48.776;9.162;2023-02-01T09:03:42;6.80;95.50
292;DHT22;23311;48.776;9.162;2023-02-01T09:06:12;6.80;95.50
292;DHT22;23311;48.776;9.162;2023-02-01T09:08:41;6.80;95.50
292;DHT22;23311;48.776;9.162;2023-02-01T09:11:13;6.80;95.50
292;DHT22;23311;48.776;9.162;2023-02-01T09:13:42;6.70;95.50
292;DHT22;23311;48.776;9.162;2023-02-01T09:16:10;6.60;95.50
292;DHT22;23311;48.776;9.162;2023-02-01T09:18:38;6.60;95.50
292;DHT22;23311;48.776;9.162;2023-02-01T09:21:27;6.60;95.50
292;DHT22;23311;48.776;9.162;2023-02-01T09:23:55;6.50;95.50
292;DHT22;23311;48.776;9.162;2023-02-01T09:26:24;6.50;95.50
292;DHT22;23311;48.776;9.162;2023-02-01T09:28:59;6.50;95.50
292;DHT22;23311;48.776;9.162;2023-02-01T09:31:27;6.60;95.50
292;DHT22;23311;48.776;9.162;2023-02-01T09:33:55;6.60;95.50
292;DHT22;23311;48.776;9.162;2023-02-01T09:36:24;6.70;95.50
292;DHT22;23311;48.776;9.162;2023-02-01T09:38:52;6.90;95.50
292;DHT22;23311;48.776;9.162;2023-02-01T09:41:30;7.10;95.50
292;DHT22;23311;48.776;9.162;2023-02-01T09:44:04;7.20;95.50
292;DHT22;23311;48.776;9.162;2023-02-01T09:46:34;7.20;95.50
292;DHT22;23311;48.776;9.162;2023-02-01T09:49:05;7.30;95.50
292;DHT22;23311;48.776;9.162;2023-02-01T09:51:36;7.40;95.50
292;DHT22;23311;48.776;9.162;2023-02-01T09:54:09;7.60;95.50
292;DHT22;23311;48.776;9.162;2023-02-01T09:56:44;7.50;95.50
292;DHT22;23311;48.776;9.162;2023-02-01T09:59:30;7.20;95.50
292;DHT22;23311;48.776;9.162;2023-02-01T10:02:02;7.10;95.50
292;DHT22;23311;48.776;9.162;2023-02-01T10:04:31;7.10;95.50
292;DHT22;23311;48.776;9.162;2023-02-01T10:07:12;7.20;95.50
292;DHT22;23311;48.776;9.162;2023-02-01T10:09:52;7.10;95.50
292;DHT22;23311;48.776;9.162;2023-02-01T10:15:45;7.10;95.50
292;DHT22;23311;48.776;9.162;2023-02-01T10:18:34;7.00;95.50
292;DHT22;23311;48.776;9.162;2023-02-01T10:21:11;7.00;95.50
292;DHT22;23311;48.776;9.162;2023-02-01T10:24:01;7.10;95.50
292;DHT22;23311;48.776;9.162;2023-02-01T10:26:45;7.20;95.50
292;DHT22;23311;48.776;9.162;2023-02-01T10:29:19;7.30;95.50
292;DHT22;23311;48.776;9.162;2023-02-01T10:31:47;7.40;95.50
292;DHT22;23311;48.776;9.162;2023-02-01T10:34:20;7.50;95.50
292;DHT22;23311;48.776;9.162;2023-02-01T10:36:58;7.60;95.50
292;DHT22;23311;48.776;9.162;2023-02-01T10:39:27;7.60;95.30
292;DHT22;23311;48.776;9.162;2023-02-01T10:41:56;7.40;95.20
292;DHT22;23311;48.776;9.162;2023-02-01T10:44:28;7.20;95.50
292;DHT22;23311;48.776;9.162;2023-02-01T10:46:57;7.30;95.50
292;DHT22;23311;48.776;9.162;2023-02-01T10:49:32;7.30;95.50
292;DHT22;23311;48.776;9.162;2023-02-01T10:52:07;7.40;95.50
292;DHT22;23311;48.776;9.162;2023-02-01T10:54:40;7.60;95.30
292;DHT22;23311;48.776;9.162;2023-02-01T10:57:10;7.70;94.30
292;DHT22;23311;48.776;9.162;2023-02-01T10:59:40;7.60;94.10
292;DHT22;23311;48.776;9.162;2023-02-01T11:02:20;7.40;94.60
292;DHT22;23311;48.776;9.162;2023-02-01T11:04:49;7.40;94.70
292;DHT22;23311;48.776;9.162;2023-02-01T11:07:22;7.20;94.80
292;DHT22;23311;48.776;9.162;2023-02-01T11:09:53;7.30;95.10
292;DHT22;23311;48.776;9.162;2023-02-01T11:12:28;7.30;94.80
292;DHT22;23311;48.776;9.162;2023-02-01T11:15:14;7.40;94.50
292;DHT22;23311;48.776;9.162;2023-02-01T11:17:44;7.30;94.10
292;DHT22;23311;48.776;9.162;2023-02-01T11:20:16;7.30;94.30
292;DHT22;23311;48.776;9.162;2023-02-01T11:22:52;7.30;94.50
292;DHT22;23311;48.776;9.162;2023-02-01T11:25:21;7.30;94.40
292;DHT22;23311;48.776;9.162;2023-02-01T11:27:51;7.20;94.00
292;DHT22;23311;48.776;9.162;2023-02-01T11:30:31;7.20;94.30
292;DHT22;23311;48.776;9.162;2023-02-01T11:33:01;7.20;94.10
292;DHT22;23311;48.776;9.162;2023-02-01T11:35:36;7.30;93.90
292;DHT22;23311;48.776;9.162;2023-02-01T11:38:12;7.40;93.50
292;DHT22;23311;48.776;9.162;2023-02-01T11:40:42;7.30;93.00
292;DHT22;23311;48.776;9.162;2023-02-01T11:43:16;7.40;93.30
292;DHT22;23311;48.776;9.162;2023-02-01T11:45:56;7.40;92.70
292;DHT22;23311;48.776;9.162;2023-02-01T11:48:26;7.40;92.70
292;DHT22;23311;48.776;9.162;2023-02-01T11:51:14;7.40;92.50
292;DHT22;23311;48.776;9.162;2023-02-01T11:54:08;7.40;92.80
292;DHT22;23311;48.776;9.162;2023-02-01T11:56:49;7.50;92.40
292;DHT22;23311;48.776;9.162;2023-02-01T11:59:29;7.70;92.20
292;DHT22;23311;48.776;9.162;2023-02-01T12:02:12;7.80;90.90
292;DHT22;23311;48.776;9.162;2023-02-01T12:04:57;7.60;90.70
292;DHT22;23311;48.776;9.162;2023-02-01T12:07:39;7.60;90.50
292;DHT22;23311;48.776;9.162;2023-02-01T12:10:20;7.30;90.90
292;DHT22;23311;48.776;9.162;2023-02-01T12:12:58;7.20;91.20
292;DHT22;23311;48.776;9.162;2023-02-01T12:15:42;7.20;91.70
292;DHT22;23311;48.776;9.162;2023-02-01T12:21:40;7.30;91.50
292;DHT22;23311;48.776;9.162;2023-02-01T12:27:54;7.30;91.60
292;DHT22;23311;48.776;9.162;2023-02-01T12:30:48;7.50;91.10
292;DHT22;23311;48.776;9.162;2023-02-01T12:33:31;7.30;91.70
292;DHT22;23311;48.776;9.162;2023-02-01T12:36:08;7.20;91.90
292;DHT22;23311;48.776;9.162;2023-02-01T12:38:57;7.20;91.90
292;DHT22;23311;48.776;9.162;2023-02-01T12:41:49;7.20;92.40
292;DHT22;23311;48.776;9.162;2023-02-01T12:44:27;7.20;92.50
292;DHT22;23311;48.776;9.162;2023-02-01T12:46:58;7.30;92.70
292;DHT22;23311;48.776;9.162;2023-02-01T12:49:41;7.20;92.60
292;DHT22;23311;48.776;9.162;2023-02-01T12:52:13;7.20;92.90
292;DHT22;23311;48.776;9.162;2023-02-01T12:54:46;7.10;93.10
292;DHT22;23311;48.776;9.162;2023-02-01T12:57:20;7.00;93.50
292;DHT22;23311;48.776;9.162;2023-02-01T12:59:56;7.00;94.20
292;DHT22;23311;48.776;9.162;2023-02-01T13:02:34;6.90;94.60
292;DHT22;23311;48.776;9.162;2023-02-01T13:05:17;6.80;94.90
292;DHT22;23311;48.776;9.162;2023-02-01T13:07:49;6.80;95.00
292;DHT22;23311;48.776;9.162;2023-02-01T13:10:24;6.80;95.30
292;DHT22;23311;48.776;9.162;2023-02-01T13:13:02;6.80;95.50
292;DHT22;23311;48.776;9.162;2023-02-01T13:15:36;6.80;95.50
292;DHT22;23311;48.776;9.162;2023-02-01T13:18:09;6.80;95.50
292;DHT22;23311;48.776;9.162;2023-02-01T13:20:48;6.90;95.10
292;DHT22;23311;48.776;9.162;2023-02-01T13:23:23;6.90;95.00
292;DHT22;23311;48.776;9.162;2023-02-01T13:25:54;7.00;94.90
292;DHT22;23311;48.776;9.162;2023-02-01T13:28:26;7.00;94.60
292;DHT22;23311;48.776;9.162;2023-02-01T13:31:10;7.00;94.00
292;DHT22;23311;48.776;9.162;2023-02-01T13:34:22;6.90;94.70
292;DHT22;23311;48.776;9.162;2023-02-01T13:37:02;7.00;94.60
292;DHT22;23311;48.776;9.162;2023-02-01T13:40:03;7.10;94.30
292;DHT22;23311;48.776;9.162;2023-02-01T13:42:42;7.00;94.20
292;DHT22;23311;48.776;9.162;2023-02-01T13:45:15;7.00;94.30
292;DHT22;23311;48.776;9.162;2023-02-01T13:47:47;7.00;94.40
292;DHT22;23311;48.776;9.162;2023-02-01T13:50:21;6.90;95.10
292;DHT22;23311;48.776;9.162;2023-02-01T13:52:57;6.90;95.50
292;DHT22;23311;48.776;9.162;2023-02-01T13:55:29;6.80;95.50
292;DHT22;23311;48.776;9.162;2023-02-01T13:58:03;6.80;95.50
292;DHT22;23311;48.776;9.162;2023-02-01T14:00:33;6.80;95.50
292;DHT22;23311;48.776;9.162;2023-02-01T14:03:16;6.70;95.50
292;DHT22;23311;48.776;9.162;2023-02-01T14:06:14;6.70;95.50
292;DHT22;23311;48.776;9.162;2023-02-01T14:09:13;6.70;95.50
292;DHT22;23311;48.776;9.162;2023-02-01T14:11:46;6.70;95.50
292;DHT22;23311;48.776;9.162;2023-02-01T14:14:45;6.80;95.50
292;DHT22;23311;48.776;9.162;2023-02-01T14:17:34;6.80;95.30
292;DHT22;23311;48.776;9.162;2023-02-01T14:23:18;7.00;95.00
292;DHT22;23311;48.776;9.162;2023-02-01T14:26:06;7.00;95.00
292;DHT22;23311;48.776;9.162;2023-02-01T14:28:39;7.10;94.40
292;DHT22;23311;48.776;9.162;2023-02-01T14:31:26;6.90;94.50
292;DHT22;23311;48.776;9.162;2023-02-01T14:34:00;6.90;94.80
292;DHT22;23311;48.776;9.162;2023-02-01T14:36:40;6.90;94.60
292;DHT22;23311;48.776;9.162;2023-02-01T14:39:30;6.90;94.60
292;DHT22;23311;48.776;9.162;2023-02-01T14:42:04;6.80;94.90
292;DHT22;23311;48.776;9.162;2023-02-01T14:44:35;6.80;94.80
292;DHT22;23311;48.776;9.162;2023-02-01T14:47:29;6.80;94.80
292;DHT22;23311;48.776;9.162;2023-02-01T14:50:23;6.80;95.10
292;DHT22;23311;48.776;9.162;2023-02-01T14:53:04;6.80;95.40
292;DHT22;23311;48.776;9.162;2023-02-01T14:55:37;6.80;95.50
292;DHT22;23311;48.776;9.162;2023-02-01T14:58:18;6.70;95.50
292;DHT22;23311;48.776;9.162;2023-02-01T15:00:49;6.70;95.50
292;DHT22;23311;48.776;9.162;2023-02-01T15:03:30;6.70;95.50
292;DHT22;23311;48.776;9.162;2023-02-01T15:06:02;6.70;95.50
292;DHT22;23311;48.776;9.162;2023-02-01T15:08:35;6.70;95.50
292;DHT22;23311;48.776;9.162;2023-02-01T15:11:08;6.70;95.50
292;DHT22;23311;48.776;9.162;2023-02-01T15:13:48;6.70;95.50
292;DHT22;23311;48.776;9.162;2023-02-01T15:16:20;6.70;95.50
292;DHT22;23311;48.776;9.162;2023-02-01T15:18:49;6.70;95.50
292;DHT22;23311;48.776;9.162;2023-02-01T15:21:20;6.60;95.50
292;DHT22;23311;48.776;9.162;2023-02-01T15:24:10;6.60;95.50
292;DHT22;23311;48.776;9.162;2023-02-01T15:26:39;6.60;95.50
292;DHT22;23311;48.776;9.162;2023-02-01T15:29:12;6.60;95.50
292;DHT22;23311;48.776;9.162;2023-02-01T15:31:42;6.60;95.50
292;DHT22;23311;48.776;9.162;2023-02-01T15:34:12;6.60;95.50
292;DHT22;23311;48.776;9.162;2023-02-01T15:36:41;6.50;95.50
292;DHT22;23311;48.776;9.162;2023-02-01T15:39:26;6.50;95.50
292;DHT22;23311;48.776;9.162;2023-02-01T15:41:58;6.60;95.50
292;DHT22;23311;48.776;9.162;2023-02-01T15:44:32;6.60;95.50
292;DHT22;23311;48.776;9.162;2023-02-01T15:47:07;6.60;95.50
292;DHT22;23311;48.776;9.162;2023-02-01T15:49:38;6.60;95.50
292;DHT22;23311;48.776;9.162;2023-02-01T15:52:19;6.60;95.50
292;DHT22;23311;48.776;9.162;2023-02-01T15:54:51;6.60;95.40
292;DHT22;23311;48.776;9.162;2023-02-01T15:57:22;6.60;95.50
292;DHT22;23311;48.776;9.162;2023-02-01T16:00:00;6.60;95.50
292;DHT22;23311;48.776;9.162;2023-02-01T16:02:34;6.60;95.50
292;DHT22;23311;48.776;9.162;2023-02-01T16:05:21;6.60;95.40
292;DHT22;23311;48.776;9.162;2023-02-01T16:07:56;6.60;95.10
292;DHT22;23311;48.776;9.162;2023-02-01T16:10:32;6.70;94.80
292;DHT22;23311;48.776;9.162;2023-02-01T16:13:05;6.60;95.00
292;DHT22;23311;48.776;9.162;2023-02-01T16:15:35;6.60;94.70
292;DHT22;23311;48.776;9.162;2023-02-01T16:18:03;6.70;94.50
292;DHT22;23311;48.776;9.162;2023-02-01T16:20:31;6.70;94.40
292;DHT22;23311;48.776;9.162;2023-02-01T16:23:00;6.70;94.50
292;DHT22;23311;48.776;9.162;2023-02-01T16:25:28;6.70;94.30
292;DHT22;23311;48.776;9.162;2023-02-01T16:27:56;6.80;94.20
292;DHT22;23311;48.776;9.162;2023-02-01T16:30:25;6.80;94.30
292;DHT22;23311;48.776;9.162;2023-02-01T16:32:55;6.70;94.40
292;DHT22;23311;48.776;9.162;2023-02-01T16:35:30;6.70;94.40
292;DHT22;23311;48.776;9.162;2023-02-01T16:38:02;6.70;94.60
292;DHT22;23311;48.776;9.162;2023-02-01T16:40:35;6.70;94.50
292;DHT22;23311;48.776;9.162;2023-02-01T16:43:11;6.70;94.40
292;DHT22;23311;48.776;9.162;2023-02-01T16:45:39;6.70;94.20
292;DHT22;23311;48.776;9.162;2023-02-01T16:48:17;6.70;94.30
292;DHT22;23311;48.776;9.162;2023-02-01T16:50:48;6.70;94.30
292;DHT22;23311;48.776;9.162;2023-02-01T16:53:17;6.70;94.10
292;DHT22;23311;48.776;9.162;2023-02-01T16:55:46;6.60;94.10
292;DHT22;23311;48.776;9.162;2023-02-01T16:58:16;6.60;94.30
292;DHT22;23311;48.776;9.162;2023-02-01T17:00:46;6.50;94.30
292;DHT22;23311;48.776;9.162;2023-02-01T17:03:17;6.50;94.40
292;DHT22;23311;48.776;9.162;2023-02-01T17:05:47;6.40;94.70
292;DHT22;23311;48.776;9.162;2023-02-01T17:08:19;6.30;94.90
292;DHT22;23311;48.776;9.162;2023-02-01T17:10:49;6.30;95.10
292;DHT22;23311;48.776;9.162;2023-02-01T17:13:17;6.10;95.40